sensor_id;sensor_type;location;lat;lon;timestamp;pressure;altitude;pressure_sealevel;temperature;humidity
25084;BME280;13075;55.682;37.564;2023-01-29T00:00:35;99700.59;;;3.04;100.00
25084;BME280;13075;55.682;37.564;2023-01-29T00:03:01;99696.38;;;3.11;100.00
25084;BME280;13075;55.682;37.564;2023-01-29T00:05:27;99698.47;;;3.07;100.00
25084;BME280;13075;55.682;37.564;2023-01-29T00:07:53;99697.66;;;3.07;100.00
25084;BME280;13075;55.682;37.564;2023-01-29T00:10:19;99695.56;;;3.28;100.00
25084;BME280;13075;55.682;37.564;2023-01-29T00:12:44;99687.53;;;3.20;100.00
25084;BME280;13075;55.682;37.564;2023-01-29T00:15:10;99693.66;;;3.38;100.00
25084;BME280;13075;55.682;37.564;2023-01-29T00:17:36;99696.00;;;3.41;100.00
25084;BME280;13075;55.682;37.564;2023-01-29T00:20:02;99700.88;;;3.46;100.00
25084;BME280;13075;55.682;37.564;2023-01-29T00:22:29;99695.03;;;3.42;100.00
25084;BME280;13075;55.682;37.564;2023-01-29T00:24:54;99685.97;;;3.45;100.00
25084;BME280;13075;55.682;37.564;2023-01-29T00:27:20;99689.69;;;3.34;100.00
25084;BME280;13075;55.682;37.564;2023-01-29T00:29:46;99682.19;;;3.12;100.00
25084;BME280;13075;55.682;37.564;2023-01-29T00:32:32;99681.66;;;3.08;100.00
25084;BME280;13075;55.682;37.564;2023-01-29T00:34:58;99686.56;;;3.39;100.00
25084;BME280;13075;55.682;37.564;2023-01-29T00:37:23;99681.66;;;3.08;100.00
25084;BME280;13075;55.682;37.564;2023-01-29T00:39:49;99682.94;;;3.04;100.00
25084;BME280;13075;55.682;37.564;2023-01-29T00:42:14;99677.75;;;3.30;100.00
25084;BME280;13075;55.682;37.564;2023-01-29T00:44:59;99669.34;;;3.17;100.00
25084;BME280;13075;55.682;37.564;2023-01-29T00:47:25;99676.16;;;3.37;100.00
25084;BME280;13075;55.682;37.564;2023-01-29T00:50:01;99673.22;;;3.23;100.00
25084;BME280;13075;55.682;37.564;2023-01-29T00:52:27;99669.44;;;3.43;100.00
25084;BME280;13075;55.682;37.564;2023-01-29T00:54:55;99654.38;;;3.26;100.00
25084;BME280;13075;55.682;37.564;2023-01-29T00:57:22;99675.22;;;3.11;100.00
25084;BME280;13075;55.682;37.564;2023-01-29T00:59:48;99662.06;;;2.84;100.00
25084;BME280;13075;55.682;37.564;2023-01-29T01:02:14;99672.50;;;3.21;100.00
25084;BME280;13075;55.682;37.564;2023-01-29T01:04:58;99675.34;;;2.92;100.00
25084;BME280;13075;55.682;37.564;2023-01-29T01:07:26;99668.22;;;3.02;100.00
25084;BME280;13075;55.682;37.564;2023-01-29T01:09:52;99679.34;;;2.69;100.00
25084;BME280;13075;55.682;37.564;2023-01-29T01:12:37;99677.47;;;2.88;100.00
25084;BME280;13075;55.682;37.564;2023-01-29T01:15:03;99665.69;;;2.83;100.00
25084;BME280;13075;55.682;37.564;2023-01-29T01:17:29;99668.16;;;2.84;100.00
25084;BME280;13075;55.682;37.564;2023-01-29T01:19:54;99662.88;;;2.84;100.00
25084;BME280;13075;55.682;37.564;2023-01-29T01:22:20;99668.84;;;2.59;100.00
25084;BME280;13075;55.682;37.564;2023-01-29T01:24:46;99665.66;;;2.56;100.00
25084;BME280;13075;55.682;37.564;2023-01-29T01:27:12;99669.50;;;2.71;100.00
25084;BME280;13075;55.682;37.564;2023-01-29T01:29:38;99678.22;;;2.71;100.00
25084;BME280;13075;55.682;37.564;2023-01-29T01:32:04;99668.72;;;3.05;100.00
25084;BME280;13075;55.682;37.564;2023-01-29T01:34:30;99674.94;;;3.14;100.00
25084;BME280;13075;55.682;37.564;2023-01-29T01:36:56;99667.56;;;3.35;100.00
25084;BME280;13075;55.682;37.564;2023-01-29T01:39:22;99667.69;;;3.16;100.00
25084;BME280;13075;55.682;37.564;2023-01-29T01:41:48;99668.44;;;3.26;100.00
25084;BME280;13075;55.682;37.564;2023-01-29T01:47:32;99656.66;;;3.21;100.00
25084;BME280;13075;55.682;37.564;2023-01-29T01:50:09;99655.69;;;3.22;100.00
25084;BME280;13075;55.682;37.564;2023-01-29T01:52:38;99656.38;;;2.79;100.00
25084;BME280;13075;55.682;37.564;2023-01-29T01:55:06;99651.63;;;2.82;100.00
25084;BME280;13075;55.682;37.564;2023-01-29T01:57:33;99651.03;;;2.61;100.00
25084;BME280;13075;55.682;37.564;2023-01-29T02:00:08;99640.56;;;2.96;100.00
25084;BME280;13075;55.682;37.564;2023-01-29T02:02:43;99647.94;;;2.75;100.00
25084;BME280;13075;55.682;37.564;2023-01-29T02:05:33;99633.91;;;2.47;100.00
25084;BME280;13075;55.682;37.564;2023-01-29T02:08:34;99629.63;;;2.64;100.00
25084;BME280;13075;55.682;37.564;2023-01-29T02:11:19;99636.78;;;2.81;100.00
25084;BME280;13075;55.682;37.564;2023-01-29T02:13:45;99625.13;;;2.74;100.00
25084;BME280;13075;55.682;37.564;2023-01-29T02:16:10;99630.94;;;2.50;100.00
25084;BME280;13075;55.682;37.564;2023-01-29T02:18:36;99625.53;;;2.52;100.00
25084;BME280;13075;55.682;37.564;2023-01-29T02:32:23;99605.50;;;2.32;100.00
25084;BME280;13075;55.682;37.564;2023-01-29T02:35:08;99604.53;;;2.50;100.00
25084;BME280;13075;55.682;37.564;2023-01-29T02:40:54;99588.72;;;2.23;100.00
25084;BME280;13075;55.682;37.564;2023-01-29T02:46:13;99593.91;;;2.42;100.00
25084;BME280;13075;55.682;37.564;2023-01-29T02:49:23;99599.31;;;2.14;100.00
25084;BME280;13075;55.682;37.564;2023-01-29T02:51:48;99579.09;;;2.32;100.00
25084;BME280;13075;55.682;37.564;2023-01-29T02:54:20;99578.66;;;2.36;100.00
25084;BME280;13075;55.682;37.564;2023-01-29T02:56:53;99578.50;;;2.38;100.00
25084;BME280;13075;55.682;37.564;2023-01-29T02:59:51;99569.16;;;2.43;100.00
25084;BME280;13075;55.682;37.564;2023-01-29T03:02:25;99562.44;;;2.31;100.00
25084;BME280;13075;55.682;37.564;2023-01-29T03:05:00;99576.13;;;2.62;100.00
25084;BME280;13075;55.682;37.564;2023-01-29T03:07:34;99561.50;;;2.68;100.00
25084;BME280;13075;55.682;37.564;2023-01-29T03:13:00;99559.38;;;2.71;100.00
25084;BME280;13075;55.682;37.564;2023-01-29T03:15:32;99551.31;;;2.55;100.00
25084;BME280;13075;55.682;37.564;2023-01-29T03:18:34;99549.63;;;2.36;100.00
25084;BME280;13075;55.682;37.564;2023-01-29T03:21:12;99537.63;;;2.42;100.00
25084;BME280;13075;55.682;37.564;2023-01-29T03:23:59;99534.63;;;2.55;100.00
25084;BME280;13075;55.682;37.564;2023-01-29T03:26:45;99538.53;;;2.50;100.00
25084;BME280;13075;55.682;37.564;2023-01-29T03:29:35;99537.13;;;2.74;100.00
25084;BME280;13075;55.682;37.564;2023-01-29T03:32:27;99525.38;;;2.86;100.00
25084;BME280;13075;55.682;37.564;2023-01-29T03:34:59;99520.47;;;2.91;100.00
25084;BME280;13075;55.682;37.564;2023-01-29T03:37:43;99509.09;;;2.45;100.00
25084;BME280;13075;55.682;37.564;2023-01-29T03:40:11;99504.06;;;2.07;100.00
25084;BME280;13075;55.682;37.564;2023-01-29T03:45:20;99503.13;;;2.26;100.00
25084;BME280;13075;55.682;37.564;2023-01-29T03:59:38;99482.69;;;2.28;100.00
25084;BME280;13075;55.682;37.564;2023-01-29T04:06:31;99475.53;;;2.20;100.00
25084;BME280;13075;55.682;37.564;2023-01-29T04:11:19;99467.41;;;2.31;100.00
25084;BME280;13075;55.682;37.564;2023-01-29T04:13:46;99463.66;;;2.07;100.00
25084;BME280;13075;55.682;37.564;2023-01-29T04:16:20;99458.06;;;2.19;100.00
25084;BME280;13075;55.682;37.564;2023-01-29T04:18:54;99464.09;;;2.29;100.00
25084;BME280;13075;55.682;37.564;2023-01-29T04:21:26;99454.59;;;2.36;100.00
25084;BME280;13075;55.682;37.564;2023-01-29T04:23:52;99450.91;;;2.02;100.00
25084;BME280;13075;55.682;37.564;2023-01-29T04:26:47;99449.06;;;2.30;100.00
25084;BME280;13075;55.682;37.564;2023-01-29T04:32:07;99454.38;;;2.47;100.00
25084;BME280;13075;55.682;37.564;2023-01-29T04:42:40;99453.75;;;1.91;100.00
25084;BME280;13075;55.682;37.564;2023-01-29T04:45:12;99451.41;;;2.15;100.00
25084;BME280;13075;55.682;37.564;2023-01-29T04:48:19;99446.28;;;2.31;100.00
25084;BME280;13075;55.682;37.564;2023-01-29T04:51:06;99446.50;;;2.20;100.00
25084;BME280;13075;55.682;37.564;2023-01-29T04:58:56;99440.44;;;1.93;100.00
25084;BME280;13075;55.682;37.564;2023-01-29T05:01:26;99437.38;;;1.70;100.00
25084;BME280;13075;55.682;37.564;2023-01-29T05:03:54;99440.91;;;2.06;100.00
25084;BME280;13075;55.682;37.564;2023-01-29T05:06:22;99434.25;;;2.02;100.00
25084;BME280;13075;55.682;37.564;2023-01-29T05:08:50;99421.91;;;2.20;100.00
25084;BME280;13075;55.682;37.564;2023-01-29T05:11:17;99424.47;;;2.12;100.00
25084;BME280;13075;55.682;37.564;2023-01-29T05:13:44;99418.13;;;1.87;100.00
25084;BME280;13075;55.682;37.564;2023-01-29T05:16:14;99428.00;;;2.03;100.00
25084;BME280;13075;55.682;37.564;2023-01-29T05:18:41;99445.31;;;1.87;100.00
25084;BME280;13075;55.682;37.564;2023-01-29T05:21:07;99440.06;;;1.87;100.00
25084;BME280;13075;55.682;37.564;2023-01-29T05:23:34;99440.72;;;1.89;100.00
25084;BME280;13075;55.682;37.564;2023-01-29T05:26:00;99434.06;;;2.13;100.00
25084;BME280;13075;55.682;37.564;2023-01-29T05:28:25;99431.31;;;2.05;100.00
25084;BME280;13075;55.682;37.564;2023-01-29T05:30:53;99438.19;;;2.15;100.00
25084;BME280;13075;55.682;37.564;2023-01-29T05:35:48;99439.59;;;1.92;100.00
25084;BME280;13075;55.682;37.564;2023-01-29T05:38:15;99443.06;;;1.93;100.00
25084;BME280;13075;55.682;37.564;2023-01-29T05:40:41;99436.78;;;2.21;100.00
25084;BME280;13075;55.682;37.564;2023-01-29T05:43:17;99440.47;;;2.10;100.00
25084;BME280;13075;55.682;37.564;2023-01-29T05:48:19;99436.09;;;2.19;100.00
25084;BME280;13075;55.682;37.564;2023-01-29T05:50:45;99446.03;;;2.07;100.00
25084;BME280;13075;55.682;37.564;2023-01-29T05:53:10;99437.91;;;2.18;100.00
25084;BME280;13075;55.682;37.564;2023-01-29T05:55:36;99446.19;;;2.06;100.00
25084;BME280;13075;55.682;37.564;2023-01-29T05:58:01;99434.59;;;1.99;100.00
25084;BME280;13075;55.682;37.564;2023-01-29T06:00:27;99436.53;;;2.14;100.00
25084;BME280;13075;55.682;37.564;2023-01-29T06:02:53;99433.19;;;1.95;100.00
25084;BME280;13075;55.682;37.564;2023-01-29T06:05:18;99441.91;;;2.22;100.00
25084;BME280;13075;55.682;37.564;2023-01-29T06:07:44;99448.47;;;2.36;100.00
25084;BME280;13075;55.682;37.564;2023-01-29T06:10:12;99444.22;;;2.08;100.00
25084;BME280;13075;55.682;37.564;2023-01-29T06:12:38;99448.16;;;2.04;100.00
25084;BME280;13075;55.682;37.564;2023-01-29T06:15:04;99443.13;;;2.28;100.00
25084;BME280;13075;55.682;37.564;2023-01-29T06:17:30;99446.97;;;2.33;100.00
25084;BME280;13075;55.682;37.564;2023-01-29T06:19:56;99441.69;;;2.16;100.00
25084;BME280;13075;55.682;37.564;2023-01-29T06:22:21;99441.97;;;2.30;100.00
25084;BME280;13075;55.682;37.564;2023-01-29T06:24:47;99420.25;;;2.54;100.00
25084;BME280;13075;55.682;37.564;2023-01-29T06:27:12;99427.81;;;2.31;100.00
25084;BME280;13075;55.682;37.564;2023-01-29T06:29:38;99421.22;;;2.53;100.00
25084;BME280;13075;55.682;37.564;2023-01-29T06:32:04;99418.97;;;2.40;100.00
25084;BME280;13075;55.682;37.564;2023-01-29T06:34:29;99421.69;;;2.31;100.00
25084;BME280;13075;55.682;37.564;2023-01-29T06:36:55;99426.53;;;2.35;100.00
25084;BME280;13075;55.682;37.564;2023-01-29T06:39:21;99411.91;;;2.41;100.00
25084;BME280;13075;55.682;37.564;2023-01-29T06:41:46;99414.03;;;2.37;100.00
25084;BME280;13075;55.682;37.564;2023-01-29T06:44:12;99417.53;;;2.64;100.00
25084;BME280;13075;55.682;37.564;2023-01-29T06:46:38;99423.25;;;2.77;100.00
25084;BME280;13075;55.682;37.564;2023-01-29T06:49:03;99415.28;;;2.33;100.00
25084;BME280;13075;55.682;37.564;2023-01-29T06:51:29;99412.41;;;2.62;100.00
25084;BME280;13075;55.682;37.564;2023-01-29T06:53:54;99417.34;;;2.39;100.00
25084;BME280;13075;55.682;37.564;2023-01-29T06:56:21;99413.94;;;2.47;100.00
25084;BME280;13075;55.682;37.564;2023-01-29T06:58:47;99408.63;;;2.65;100.00
25084;BME280;13075;55.682;37.564;2023-01-29T07:01:13;99392.28;;;2.43;100.00
25084;BME280;13075;55.682;37.564;2023-01-29T07:03:38;99401.19;;;2.42;100.00
25084;BME280;13075;55.682;37.564;2023-01-29T07:06:06;99396.28;;;2.47;100.00
25084;BME280;13075;55.682;37.564;2023-01-29T07:08:38;99384.78;;;2.74;100.00
25084;BME280;13075;55.682;37.564;2023-01-29T07:11:05;99379.06;;;2.87;100.00
25084;BME280;13075;55.682;37.564;2023-01-29T07:13:31;99378.56;;;2.58;100.00
25084;BME280;13075;55.682;37.564;2023-01-29T07:15:58;99389.19;;;2.91;100.00
25084;BME280;13075;55.682;37.564;2023-01-29T07:18:25;99382.72;;;2.86;100.00
25084;BME280;13075;55.682;37.564;2023-01-29T07:20:50;99386.09;;;2.96;100.00
25084;BME280;13075;55.682;37.564;2023-01-29T07:23:16;99384.94;;;2.98;100.00
25084;BME280;13075;55.682;37.564;2023-01-29T07:25:42;99389.44;;;3.06;100.00
25084;BME280;13075;55.682;37.564;2023-01-29T07:28:08;99386.09;;;2.96;100.00
25084;BME280;13075;55.682;37.564;2023-01-29T07:30:34;99385.06;;;2.71;100.00
25084;BME280;13075;55.682;37.564;2023-01-29T07:33:05;99380.06;;;2.60;100.00
25084;BME280;13075;55.682;37.564;2023-01-29T07:35:35;99380.16;;;2.76;100.00
25084;BME280;13075;55.682;37.564;2023-01-29T07:38:01;99377.56;;;2.84;100.00
25084;BME280;13075;55.682;37.564;2023-01-29T07:40:27;99376.50;;;2.95;100.00
25084;BME280;13075;55.682;37.564;2023-01-29T07:43:03;99375.72;;;3.02;100.00
25084;BME280;13075;55.682;37.564;2023-01-29T07:45:33;99370.94;;;3.06;100.00
25084;BME280;13075;55.682;37.564;2023-01-29T07:47:59;99381.28;;;2.99;100.00
25084;BME280;13075;55.682;37.564;2023-01-29T07:50:26;99376.75;;;3.09;100.00
25084;BME280;13075;55.682;37.564;2023-01-29T07:52:55;99361.59;;;2.86;100.00
25084;BME280;13075;55.682;37.564;2023-01-29T07:55:20;99361.47;;;2.95;100.00
25084;BME280;13075;55.682;37.564;2023-01-29T07:57:46;99352.38;;;3.24;100.00
25084;BME280;13075;55.682;37.564;2023-01-29T08:00:13;99349.94;;;3.30;100.00
25084;BME280;13075;55.682;37.564;2023-01-29T08:02:40;99350.69;;;3.56;100.00
25084;BME280;13075;55.682;37.564;2023-01-29T08:05:06;99345.88;;;3.52;100.00
25084;BME280;13075;55.682;37.564;2023-01-29T08:07:32;99352.34;;;3.57;100.00
25084;BME280;13075;55.682;37.564;2023-01-29T08:09:57;99349.59;;;3.75;100.00
25084;BME280;13075;55.682;37.564;2023-01-29T08:12:23;99358.16;;;3.61;100.00
25084;BME280;13075;55.682;37.564;2023-01-29T08:14:48;99353.13;;;3.42;100.00
25084;BME280;13075;55.682;37.564;2023-01-29T08:17:14;99354.47;;;3.12;100.00
25084;BME280;13075;55.682;37.564;2023-01-29T08:19:40;99343.13;;;3.20;100.00
25084;BME280;13075;55.682;37.564;2023-01-29T08:22:05;99327.53;;;3.50;100.00
25084;BME280;13075;55.682;37.564;2023-01-29T08:24:31;99326.84;;;3.40;100.00
25084;BME280;13075;55.682;37.564;2023-01-29T08:26:57;99335.28;;;3.52;100.00
25084;BME280;13075;55.682;37.564;2023-01-29T08:29:23;99337.00;;;3.77;100.00
25084;BME280;13075;55.682;37.564;2023-01-29T08:31:49;99329.88;;;3.69;100.00
25084;BME280;13075;55.682;37.564;2023-01-29T08:34:14;99327.91;;;3.63;100.00
25084;BME280;13075;55.682;37.564;2023-01-29T08:36:40;99323.13;;;3.17;100.00
25084;BME280;13075;55.682;37.564;2023-01-29T08:39:06;99328.88;;;3.62;100.00
25084;BME280;13075;55.682;37.564;2023-01-29T08:41:31;99330.09;;;3.84;100.00
25084;BME280;13075;55.682;37.564;2023-01-29T08:43:57;99335.34;;;3.68;100.00
25084;BME280;13075;55.682;37.564;2023-01-29T08:46:24;99324.53;;;3.45;100.00
25084;BME280;13075;55.682;37.564;2023-01-29T08:48:50;99334.19;;;3.21;100.00
25084;BME280;13075;55.682;37.564;2023-01-29T08:51:15;99325.50;;;3.02;100.00
25084;BME280;13075;55.682;37.564;2023-01-29T08:53:41;99331.56;;;2.95;100.00
25084;BME280;13075;55.682;37.564;2023-01-29T08:56:07;99327.75;;;2.64;100.00
25084;BME280;13075;55.682;37.564;2023-01-29T08:58:33;99324.03;;;2.74;100.00
25084;BME280;13075;55.682;37.564;2023-01-29T09:01:08;99326.25;;;2.87;100.00
25084;BME280;13075;55.682;37.564;2023-01-29T09:03:34;99316.03;;;3.26;100.00
25084;BME280;13075;55.682;37.564;2023-01-29T09:06:00;99313.72;;;3.31;100.00
25084;BME280;13075;55.682;37.564;2023-01-29T09:08:26;99320.59;;;3.57;100.00
25084;BME280;13075;55.682;37.564;2023-01-29T09:10:52;99307.13;;;3.27;100.00
25084;BME280;13075;55.682;37.564;2023-01-29T09:13:18;99307.69;;;3.54;100.00
25084;BME280;13075;55.682;37.564;2023-01-29T09:15:44;99307.13;;;3.27;100.00
25084;BME280;13075;55.682;37.564;2023-01-29T09:18:09;99303.25;;;3.13;100.00
25084;BME280;13075;55.682;37.564;2023-01-29T09:20:35;99314.63;;;3.47;100.00
25084;BME280;13075;55.682;37.564;2023-01-29T09:23:07;99320.75;;;3.06;100.00
25084;BME280;13075;55.682;37.564;2023-01-29T09:25:33;99314.63;;;3.05;100.00
25084;BME280;13075;55.682;37.564;2023-01-29T09:27:59;99305.72;;;3.06;100.00
25084;BME280;13075;55.682;37.564;2023-01-29T09:30:24;99299.81;;;2.87;100.00
25084;BME280;13075;55.682;37.564;2023-01-29T09:32:50;99300.81;;;2.86;100.00
25084;BME280;13075;55.682;37.564;2023-01-29T09:35:16;99290.03;;;3.13;100.00
25084;BME280;13075;55.682;37.564;2023-01-29T09:37:41;99288.22;;;3.13;100.00
25084;BME280;13075;55.682;37.564;2023-01-29T09:40:22;99277.09;;;2.94;100.00
25084;BME280;13075;55.682;37.564;2023-01-29T09:42:54;99276.00;;;3.04;100.00
25084;BME280;13075;55.682;37.564;2023-01-29T09:45:23;99274.19;;;3.13;100.00
25084;BME280;13075;55.682;37.564;2023-01-29T09:47:49;99276.59;;;3.32;100.00
25084;BME280;13075;55.682;37.564;2023-01-29T09:50:37;99271.16;;;3.42;100.00
25084;BME280;13075;55.682;37.564;2023-01-29T09:53:29;99265.75;;;3.67;100.00
25084;BME280;13075;55.682;37.564;2023-01-29T09:56:05;99253.81;;;3.47;100.00
25084;BME280;13075;55.682;37.564;2023-01-29T09:58:37;99258.91;;;3.33;100.00
25084;BME280;13075;55.682;37.564;2023-01-29T10:01:18;99266.91;;;3.15;100.00
25084;BME280;13075;55.682;37.564;2023-01-29T10:06:27;99251.75;;;3.17;100.00
25084;BME280;13075;55.682;37.564;2023-01-29T10:09:06;99250.59;;;3.20;100.00
25084;BME280;13075;55.682;37.564;2023-01-29T10:17:41;99236.69;;;3.09;100.00
25084;BME280;13075;55.682;37.564;2023-01-29T10:20:33;99229.28;;;3.21;100.00
25084;BME280;13075;55.682;37.564;2023-01-29T10:23:12;99225.31;;;3.17;100.00
25084;BME280;13075;55.682;37.564;2023-01-29T10:25:41;99210.84;;;3.37;100.00
25084;BME280;13075;55.682;37.564;2023-01-29T10:28:35;99207.34;;;3.29;100.00
25084;BME280;13075;55.682;37.564;2023-01-29T10:31:16;99192.34;;;3.53;100.00
25084;BME280;13075;55.682;37.564;2023-01-29T10:33:49;99180.56;;;3.24;100.00
25084;BME280;13075;55.682;37.564;2023-01-29T10:36:22;99174.00;;;3.60;100.00
25084;BME280;13075;55.682;37.564;2023-01-29T10:38:50;99172.50;;;3.65;100.00
25084;BME280;13075;55.682;37.564;2023-01-29T10:44:26;99163.41;;;3.60;100.00
25084;BME280;13075;55.682;37.564;2023-01-29T10:47:11;99156.97;;;3.70;100.00
25084;BME280;13075;55.682;37.564;2023-01-29T11:01:12;99141.44;;;3.51;100.00
25084;BME280;13075;55.682;37.564;2023-01-29T11:03:38;99146.22;;;3.40;100.00
25084;BME280;13075;55.682;37.564;2023-01-29T11:06:30;99135.97;;;3.77;100.00
25084;BME280;13075;55.682;37.564;2023-01-29T11:11:40;99129.38;;;3.33;100.00
25084;BME280;13075;55.682;37.564;2023-01-29T11:14:12;99131.00;;;3.34;100.00
25084;BME280;13075;55.682;37.564;2023-01-29T11:16:45;99130.53;;;3.70;100.00
25084;BME280;13075;55.682;37.564;2023-01-29T11:19:11;99117.41;;;4.01;100.00
25084;BME280;13075;55.682;37.564;2023-01-29T11:21:58;99118.91;;;4.04;100.00
25084;BME280;13075;55.682;37.564;2023-01-29T11:24:26;99118.78;;;3.65;100.00
25084;BME280;13075;55.682;37.564;2023-01-29T11:26:54;99118.97;;;3.39;100.00
25084;BME280;13075;55.682;37.564;2023-01-29T11:29:42;99120.91;;;3.86;100.00
25084;BME280;13075;55.682;37.564;2023-01-29T11:32:23;99126.56;;;3.58;100.00
25084;BME280;13075;55.682;37.564;2023-01-29T11:37:36;99121.91;;;3.85;100.00
25084;BME280;13075;55.682;37.564;2023-01-29T11:40:28;99115.41;;;4.03;100.00
25084;BME280;13075;55.682;37.564;2023-01-29T11:43:11;99112.44;;;4.06;100.00
25084;BME280;13075;55.682;37.564;2023-01-29T11:45:38;99118.53;;;4.23;100.00
25084;BME280;13075;55.682;37.564;2023-01-29T11:48:14;99110.34;;;3.77;100.00
25084;BME280;13075;55.682;37.564;2023-01-29T11:50:40;99112.34;;;3.75;100.00
25084;BME280;13075;55.682;37.564;2023-01-29T11:53:21;99104.91;;;3.63;100.00
25084;BME280;13075;55.682;37.564;2023-01-29T11:55:48;99098.59;;;3.80;100.00
25084;BME280;13075;55.682;37.564;2023-01-29T11:58:31;99097.81;;;3.71;100.00
25084;BME280;13075;55.682;37.564;2023-01-29T12:00:57;99098.13;;;3.20;100.00
25084;BME280;13075;55.682;37.564;2023-01-29T12:03:38;99100.94;;;3.27;100.00
25084;BME280;13075;55.682;37.564;2023-01-29T12:08:39;99091.88;;;3.37;100.00
25084;BME280;13075;55.682;37.564;2023-01-29T12:11:14;99088.22;;;3.62;100.00
25084;BME280;13075;55.682;37.564;2023-01-29T12:13:53;99086.53;;;3.86;100.00
25084;BME280;13075;55.682;37.564;2023-01-29T12:16:52;99100.09;;;3.18;100.00
25084;BME280;13075;55.682;37.564;2023-01-29T12:24:56;99087.72;;;3.19;100.00
25084;BME280;13075;55.682;37.564;2023-01-29T12:27:31;99096.47;;;3.19;100.00
25084;BME280;13075;55.682;37.564;2023-01-29T12:30:06;99078.47;;;3.31;100.00
25084;BME280;13075;55.682;37.564;2023-01-29T12:32:47;99074.00;;;3.39;100.00
25084;BME280;13075;55.682;37.564;2023-01-29T12:35:18;99088.03;;;3.15;100.00
25084;BME280;13075;55.682;37.564;2023-01-29T12:37:59;99090.03;;;3.13;100.00
25084;BME280;13075;55.682;37.564;2023-01-29T12:40:39;99082.75;;;3.15;100.00
25084;BME280;13075;55.682;37.564;2023-01-29T12:43:14;99092.97;;;3.02;100.00
25084;BME280;13075;55.682;37.564;2023-01-29T12:45:42;99088.88;;;3.08;100.00
25084;BME280;13075;55.682;37.564;2023-01-29T12:48:12;99094.81;;;3.02;100.00
25084;BME280;13075;55.682;37.564;2023-01-29T12:50:39;99097.78;;;3.15;100.00
25084;BME280;13075;55.682;37.564;2023-01-29T12:53:06;99088.38;;;2.96;100.00
25084;BME280;13075;55.682;37.564;2023-01-29T12:55:41;99082.94;;;3.06;100.00
25084;BME280;13075;55.682;37.564;2023-01-29T13:00:48;99091.69;;;3.14;100.00
25084;BME280;13075;55.682;37.564;2023-01-29T13:05:53;99087.41;;;3.38;100.00
25084;BME280;13075;55.682;37.564;2023-01-29T13:08:25;99083.59;;;3.08;100.00
25084;BME280;13075;55.682;37.564;2023-01-29T13:10:54;99089.81;;;2.75;100.00
25084;BME280;13075;55.682;37.564;2023-01-29T13:13:42;99071.34;;;2.83;100.00
25084;BME280;13075;55.682;37.564;2023-01-29T13:16:11;99065.41;;;2.89;100.00
25084;BME280;13075;55.682;37.564;2023-01-29T13:18:59;99072.81;;;2.85;100.00
25084;BME280;13075;55.682;37.564;2023-01-29T13:21:35;99073.69;;;2.94;100.00
25084;BME280;13075;55.682;37.564;2023-01-29T13:24:13;99076.09;;;2.79;100.00
25084;BME280;13075;55.682;37.564;2023-01-29T13:26:43;99072.53;;;2.96;100.00
25084;BME280;13075;55.682;37.564;2023-01-29T13:29:28;99060.78;;;2.83;100.00
25084;BME280;13075;55.682;37.564;2023-01-29T13:31:59;99062.13;;;3.11;100.00
25084;BME280;13075;55.682;37.564;2023-01-29T13:34:36;99063.06;;;2.78;100.00
25084;BME280;13075;55.682;37.564;2023-01-29T13:37:28;99055.19;;;3.02;100.00
25084;BME280;13075;55.682;37.564;2023-01-29T13:39:57;99072.19;;;3.15;100.00
25084;BME280;13075;55.682;37.564;2023-01-29T13:42:46;99067.06;;;3.06;100.00
25084;BME280;13075;55.682;37.564;2023-01-29T13:45:26;99060.31;;;3.28;100.00
25084;BME280;13075;55.682;37.564;2023-01-29T13:48:16;99055.84;;;3.20;100.00
25084;BME280;13075;55.682;37.564;2023-01-29T13:50:45;99064.06;;;2.85;100.00
25084;BME280;13075;55.682;37.564;2023-01-29T13:53:24;99059.44;;;2.79;100.00
25084;BME280;13075;55.682;37.564;2023-01-29T13:55:52;99062.94;;;3.11;100.00
25084;BME280;13075;55.682;37.564;2023-01-29T13:58:59;99047.72;;;2.89;100.00
25084;BME280;13075;55.682;37.564;2023-01-29T14:06:45;99045.44;;;3.19;100.00
25084;BME280;13075;55.682;37.564;2023-01-29T14:09:33;99047.91;;;2.96;100.00
25084;BME280;13075;55.682;37.564;2023-01-29T14:17:21;99040.81;;;2.88;100.00
25084;BME280;13075;55.682;37.564;2023-01-29T14:19:50;99032.03;;;2.80;100.00
25084;BME280;13075;55.682;37.564;2023-01-29T14:22:22;99032.38;;;2.85;100.00
25084;BME280;13075;55.682;37.564;2023-01-29T14:24:53;99029.06;;;2.83;100.00
25084;BME280;13075;55.682;37.564;2023-01-29T14:27:21;99028.44;;;2.89;100.00
25084;BME280;13075;55.682;37.564;2023-01-29T14:29:50;99037.38;;;2.38;100.00
25084;BME280;13075;55.682;37.564;2023-01-29T14:32:23;99028.38;;;2.65;100.00
25084;BME280;13075;55.682;37.564;2023-01-29T14:34:55;99023.59;;;2.76;100.00
25084;BME280;13075;55.682;37.564;2023-01-29T14:37:34;99022.13;;;2.58;100.00
25084;BME280;13075;55.682;37.564;2023-01-29T14:45:40;99038.41;;;2.37;100.00
25084;BME280;13075;55.682;37.564;2023-01-29T14:53:02;99032.81;;;2.40;100.00
25084;BME280;13075;55.682;37.564;2023-01-29T14:58:27;99033.78;;;2.39;100.00
25084;BME280;13075;55.682;37.564;2023-01-29T15:00:55;99019.44;;;2.41;100.00
25084;BME280;13075;55.682;37.564;2023-01-29T15:03:31;99015.09;;;2.32;100.00
25084;BME280;13075;55.682;37.564;2023-01-29T15:06:01;99025.03;;;2.38;100.00
25084;BME280;13075;55.682;37.564;2023-01-29T15:11:04;99019.34;;;2.75;100.00
25084;BME280;13075;55.682;37.564;2023-01-29T15:14:07;99003.09;;;2.46;100.00
25084;BME280;13075;55.682;37.564;2023-01-29T15:17:04;99019.13;;;2.53;100.00
25084;BME280;13075;55.682;37.564;2023-01-29T15:19:36;99017.03;;;2.80;100.00
25084;BME280;13075;55.682;37.564;2023-01-29T15:22:21;99012.72;;;2.79;100.00
25084;BME280;13075;55.682;37.564;2023-01-29T15:25:05;99003.44;;;2.59;100.00
25084;BME280;13075;55.682;37.564;2023-01-29T15:27:32;99021.88;;;2.27;100.00